Time;durP1;ratioP1;P1;durP2;ratioP2;P2;SDS_P1;SDS_P2;PMS_P1;PMS_P2;Temp;Humidity;BMP_temperature;BMP_pressure;BME280_temperature;BME280_humidity;BME280_pressure;Samples;Min_cycle;Max_cycle;Signal;HPM_P1;HPM_P2
2024/02/21 00:01:55;;;;;;;19.83;8.00;;;10.10;98.60;;;;;;780711;183;26419;-78
2024/02/21 00:04:21;;;;;;;19.03;8.37;;;10.10;98.80;;;;;;782874;183;26417;-77
2024/02/21 00:06:49;;;;;;;19.20;6.87;;;10.10;99.00;;;;;;780720;183;26495;-77
2024/02/21 00:09:15;;;;;;;19.57;8.13;;;10.10;99.00;;;;;;768388;183;27112;-77
2024/02/21 00:11:42;;;;;;;18.23;7.43;;;10.10;99.90;;;;;;772517;182;26638;-76
2024/02/21 00:14:09;;;;;;;18.40;6.80;;;10.00;98.90;;;;;;773560;183;26742;-78
2024/02/21 00:16:36;;;;;;;17.53;7.40;;;10.10;99.10;;;;;;781193;183;26406;-79
2024/02/21 00:19:02;;;;;;;17.70;7.67;;;10.10;99.10;;;;;;777890;183;26424;-77
2024/02/21 00:21:28;;;;;;;19.93;7.93;;;10.10;99.20;;;;;;779476;181;26544;-78
2024/02/21 00:23:55;;;;;;;21.60;11.63;;;10.10;99.20;;;;;;778693;183;26406;-77
2024/02/21 00:26:22;;;;;;;21.10;8.20;;;10.10;99.80;;;;;;773383;183;26502;-77
2024/02/21 00:28:48;;;;;;;19.10;8.93;;;10.10;99.90;;;;;;772675;183;26514;-76
2024/02/21 00:31:15;;;;;;;22.93;11.00;;;10.10;99.90;;;;;;763256;187;26577;-77
2024/02/21 00:33:41;;;;;;;20.13;8.83;;;10.10;99.60;;;;;;768994;183;26475;-77
2024/02/21 00:36:09;;;;;;;23.60;9.33;;;10.10;99.40;;;;;;758599;188;26530;-77
2024/02/21 00:38:35;;;;;;;14.53;7.40;;;10.10;99.50;;;;;;756704;187;26543;-76
2024/02/21 00:41:02;;;;;;;21.00;8.60;;;10.10;99.80;;;;;;760817;187;27053;-77
2024/02/21 00:43:29;;;;;;;18.53;7.67;;;10.00;99.90;;;;;;753625;188;26542;-77
2024/02/21 00:45:56;;;;;;;15.07;6.83;;;10.10;99.90;;;;;;754871;187;26612;-78
2024/02/21 00:48:22;;;;;;;42.37;22.63;;;10.00;99.80;;;;;;759366;186;26603;-78
2024/02/21 00:50:48;;;;;;;23.30;11.73;;;10.00;99.70;;;;;;754553;188;26557;-76
2024/02/21 00:53:15;;;;;;;26.40;9.93;;;10.00;99.90;;;;;;754394;188;26538;-78
2024/02/21 00:55:43;;;;;;;143.67;76.33;;;10.00;99.90;;;;;;760434;187;26548;-77
2024/02/21 00:58:08;;;;;;;79.03;38.33;;;10.00;99.90;;;;;;759114;186;26668;-77
2024/02/21 01:00:35;;;;;;;47.60;24.87;;;10.00;99.90;;;;;;775393;183;26427;-78
2024/02/21 01:03:01;;;;;;;41.73;21.63;;;9.90;99.90;;;;;;770263;184;26499;-77
2024/02/21 01:05:29;;;;;;;21.10;8.63;;;9.90;99.90;;;;;;771945;183;26399;-78
2024/02/21 01:07:55;;;;;;;17.97;9.07;;;9.90;99.90;;;;;;768366;184;27693;-79
2024/02/21 01:10:22;;;;;;;19.90;7.90;;;9.90;99.90;;;;;;756761;187;26525;-78
2024/02/21 01:12:48;;;;;;;24.37;8.23;;;9.90;99.90;;;;;;758208;187;27125;-77
2024/02/21 01:15:14;;;;;;;18.90;7.77;;;9.90;99.90;;;;;;755678;187;26512;-76
2024/02/21 01:17:42;;;;;;;21.70;8.47;;;10.00;99.90;;;;;;758303;188;27130;-78
2024/02/21 01:20:08;;;;;;;16.93;8.40;;;10.00;99.90;;;;;;755484;188;26573;-76
2024/02/21 01:22:34;;;;;;;36.57;18.70;;;10.00;99.90;;;;;;755951;187;26513;-78
2024/02/21 01:25:01;;;;;;;67.40;33.80;;;10.00;99.90;;;;;;758175;187;26492;-77
2024/02/21 01:27:28;;;;;;;27.37;13.90;;;10.00;99.90;;;;;;759340;188;26479;-77
2024/02/21 01:29:54;;;;;;;23.80;10.70;;;10.00;99.90;;;;;;762632;185;28124;-79
2024/02/21 01:32:21;;;;;;;19.20;8.87;;;10.00;99.90;;;;;;761966;184;26496;-79
2024/02/21 01:34:47;;;;;;;19.27;8.37;;;10.00;99.90;;;;;;770970;184;26398;-78
2024/02/21 01:37:14;;;;;;;19.00;8.30;;;10.00;99.90;;;;;;774573;185;26475;-78
2024/02/21 01:39:40;;;;;;;17.50;7.27;;;10.00;99.90;;;;;;765090;184;26563;-77
2024/02/21 01:42:09;;;;;;;18.83;7.73;;;10.00;99.90;;;;;;766613;181;26434;-77
2024/02/21 01:44:34;;;;;;;13.47;7.30;;;10.00;99.90;;;;;;764736;184;26671;-76
2024/02/21 01:47:00;;;;;;;16.70;7.00;;;10.00;99.90;;;;;;764241;184;27070;-77
2024/02/21 01:49:27;;;;;;;16.67;7.90;;;10.00;99.90;;;;;;768047;185;26657;-77
2024/02/21 01:51:53;;;;;;;14.83;7.27;;;10.00;99.90;;;;;;766497;185;27123;-78
2024/02/21 01:54:20;;;;;;;18.33;8.47;;;10.00;99.90;;;;;;773954;184;26586;-76
2024/02/21 01:56:47;;;;;;;36.73;18.63;;;9.90;99.90;;;;;;763573;184;27065;-77
2024/02/21 01:59:13;;;;;;;28.30;11.80;;;10.00;99.90;;;;;;763208;183;27067;-77
2024/02/21 02:01:40;;;;;;;24.53;12.37;;;10.00;99.90;;;;;;771307;184;26495;-77
2024/02/21 02:04:06;;;;;;;17.33;7.80;;;10.00;99.90;;;;;;758445;187;26548;-77
2024/02/21 02:06:33;;;;;;;17.00;7.40;;;10.00;99.90;;;;;;753025;187;26639;-77
2024/02/21 02:09:00;;;;;;;72.33;38.00;;;10.00;99.90;;;;;;759275;188;26681;-77
2024/02/21 02:11:26;;;;;;;212.50;96.93;;;10.00;99.90;;;;;;750036;189;27135;-78
2024/02/21 02:13:53;;;;;;;136.17;61.53;;;10.00;99.90;;;;;;753002;187;26505;-77
2024/02/21 02:16:19;;;;;;;52.33;26.87;;;9.90;99.90;;;;;;760134;187;26513;-77
2024/02/21 02:18:46;;;;;;;20.60;10.33;;;10.00;99.90;;;;;;757328;187;26572;-77
2024/02/21 02:21:15;;;;;;;22.10;10.37;;;10.00;99.90;;;;;;759164;187;26557;-77
2024/02/21 02:23:42;;;;;;;41.47;22.63;;;10.00;99.90;;;;;;755928;188;26596;-78
2024/02/21 02:26:09;;;;;;;51.67;23.97;;;10.00;99.90;;;;;;756095;187;26590;-77
2024/02/21 02:28:36;;;;;;;24.03;11.00;;;10.00;99.90;;;;;;767964;185;27061;-77
2024/02/21 02:31:02;;;;;;;17.33;8.33;;;10.00;99.90;;;;;;762709;185;26621;-78
2024/02/21 02:33:29;;;;;;;15.40;7.40;;;10.00;99.90;;;;;;770423;183;26398;-78
2024/02/21 02:35:55;;;;;;;14.80;7.43;;;9.90;99.90;;;;;;766592;185;26547;-77
2024/02/21 02:38:22;;;;;;;21.13;7.80;;;9.90;99.90;;;;;;770289;184;26434;-78
2024/02/21 02:40:49;;;;;;;16.93;7.70;;;9.90;99.90;;;;;;774561;183;26396;-77
2024/02/21 02:43:16;;;;;;;13.73;7.00;;;9.80;99.90;;;;;;775644;184;26406;-79
2024/02/21 02:45:42;;;;;;;15.27;7.80;;;9.80;99.90;;;;;;775482;183;26396;-77
2024/02/21 02:48:09;;;;;;;18.07;7.70;;;9.80;99.90;;;;;;771616;184;26419;-78
2024/02/21 02:50:36;;;;;;;15.67;7.53;;;9.70;99.90;;;;;;769524;183;26398;-76
2024/02/21 02:53:02;;;;;;;17.83;8.13;;;9.80;99.90;;;;;;770424;184;26471;-77
2024/02/21 02:55:29;;;;;;;19.03;8.40;;;9.80;99.90;;;;;;775264;183;26492;-79
2024/02/21 02:57:55;;;;;;;17.73;8.13;;;9.70;99.90;;;;;;771716;185;26431;-77
2024/02/21 03:00:22;;;;;;;20.80;7.67;;;9.70;99.90;;;;;;765333;185;26556;-77
2024/02/21 03:02:49;;;;;;;14.70;7.67;;;9.70;99.90;;;;;;765812;184;26952;-78
2024/02/21 03:05:16;;;;;;;22.70;8.50;;;9.70;99.90;;;;;;763069;184;26496;-78
2024/02/21 03:07:43;;;;;;;18.63;7.40;;;9.70;99.90;;;;;;766415;183;27054;-78
2024/02/21 03:10:09;;;;;;;23.93;7.50;;;9.70;99.90;;;;;;773687;184;26549;-77
2024/02/21 03:12:36;;;;;;;14.03;7.07;;;9.70;99.90;;;;;;769775;184;26542;-78
2024/02/21 03:15:03;;;;;;;17.77;7.63;;;9.70;99.90;;;;;;773271;184;26424;-78
2024/02/21 03:17:29;;;;;;;20.20;8.10;;;9.70;99.90;;;;;;773329;181;26494;-78
2024/02/21 03:19:56;;;;;;;16.30;8.00;;;9.70;99.90;;;;;;766202;184;28088;-78
2024/02/21 03:22:22;;;;;;;21.53;7.73;;;9.70;99.90;;;;;;776223;184;26580;-78
2024/02/21 03:24:49;;;;;;;17.40;7.50;;;9.70;99.90;;;;;;749566;189;27119;-78
2024/02/21 03:27:15;;;;;;;16.97;7.47;;;9.70;99.90;;;;;;768289;183;26493;-78
2024/02/21 03:29:42;;;;;;;15.63;7.57;;;9.70;99.90;;;;;;771145;183;26504;-77
2024/02/21 03:32:09;;;;;;;14.67;6.93;;;9.70;99.90;;;;;;768194;184;26510;-77
2024/02/21 03:34:35;;;;;;;13.70;6.60;;;9.70;99.90;;;;;;762915;184;26424;-77
2024/02/21 03:37:02;;;;;;;18.17;6.90;;;9.70;99.90;;;;;;752512;188;26565;-77
2024/02/21 03:39:28;;;;;;;17.97;6.90;;;9.70;99.90;;;;;;761136;187;26516;-78
2024/02/21 03:41:55;;;;;;;17.63;6.53;;;9.70;99.90;;;;;;767283;185;26497;-77
2024/02/21 03:44:22;;;;;;;17.20;6.83;;;9.70;99.90;;;;;;763867;186;26469;-78
2024/02/21 03:46:48;;;;;;;19.07;6.73;;;9.70;99.90;;;;;;766586;182;27027;-78
2024/02/21 03:49:15;;;;;;;13.07;6.63;;;9.70;99.90;;;;;;763165;187;26538;-77
2024/02/21 03:51:42;;;;;;;17.77;6.57;;;9.70;99.90;;;;;;767809;184;27077;-77
2024/02/21 03:54:08;;;;;;;16.37;6.67;;;9.70;99.90;;;;;;765161;183;26474;-77
2024/02/21 03:56:35;;;;;;;15.07;6.40;;;9.70;99.90;;;;;;755932;187;27040;-77
2024/02/21 03:59:01;;;;;;;16.07;6.63;;;9.70;99.90;;;;;;759765;187;26519;-78
2024/02/21 04:01:29;;;;;;;18.50;7.00;;;9.70;99.90;;;;;;756517;187;27075;-78
2024/02/21 04:03:55;;;;;;;20.50;7.17;;;9.60;99.90;;;;;;768793;184;26442;-78
2024/02/21 04:06:23;;;;;;;14.17;7.03;;;9.60;99.90;;;;;;775093;184;26414;-78
2024/02/21 04:08:49;;;;;;;17.00;8.00;;;9.60;99.90;;;;;;771675;183;26484;-78
2024/02/21 04:11:17;;;;;;;16.90;8.23;;;9.60;99.90;;;;;;771041;183;26658;-77
2024/02/21 04:13:42;;;;;;;22.33;9.97;;;9.60;99.90;;;;;;774532;184;26506;-79
2024/02/21 04:16:09;;;;;;;22.60;8.30;;;9.60;99.90;;;;;;772142;183;26405;-77
2024/02/21 04:18:36;;;;;;;14.83;8.50;;;9.60;99.90;;;;;;774091;181;26421;-78
2024/02/21 04:21:02;;;;;;;19.63;8.23;;;9.60;99.90;;;;;;769310;184;26481;-78
2024/02/21 04:23:29;;;;;;;17.03;9.07;;;9.60;99.90;;;;;;767062;183;26482;-78
2024/02/21 04:25:55;;;;;;;18.47;7.90;;;9.60;99.90;;;;;;765351;185;27037;-78
2024/02/21 04:28:22;;;;;;;18.33;8.90;;;9.60;99.90;;;;;;766492;185;26712;-78
2024/02/21 04:30:49;;;;;;;12.87;7.23;;;9.50;99.90;;;;;;770907;182;26422;-78
2024/02/21 04:33:15;;;;;;;16.77;8.00;;;9.50;99.90;;;;;;765085;183;26400;-78
2024/02/21 04:35:42;;;;;;;20.70;7.80;;;9.60;99.90;;;;;;774385;183;26390;-77
2024/02/21 04:38:08;;;;;;;17.50;7.70;;;9.60;99.90;;;;;;760375;186;26581;-77
2024/02/21 04:40:35;;;;;;;20.20;8.10;;;9.50;99.90;;;;;;756571;187;27794;-77
2024/02/21 04:43:02;;;;;;;15.43;7.97;;;9.50;99.90;;;;;;753951;188;26561;-78
2024/02/21 04:45:29;;;;;;;19.33;7.17;;;9.40;99.90;;;;;;752010;187;26551;-78
2024/02/21 04:47:56;;;;;;;17.97;7.67;;;9.40;99.90;;;;;;754332;188;27100;-78
2024/02/21 04:50:22;;;;;;;16.07;6.73;;;9.40;99.90;;;;;;759729;188;26556;-77
2024/02/21 04:52:49;;;;;;;16.47;6.70;;;9.40;99.90;;;;;;754984;187;27119;-76
2024/02/21 04:55:15;;;;;;;19.00;7.80;;;9.40;99.90;;;;;;755582;187;26532;-77
2024/02/21 04:57:42;;;;;;;16.70;7.50;;;9.40;99.90;;;;;;762761;186;27048;-77
2024/02/21 05:00:09;;;;;;;14.90;6.27;;;9.40;99.90;;;;;;770356;177;26531;-79
2024/02/21 05:02:36;;;;;;;17.80;6.87;;;9.40;99.90;;;;;;779224;183;26491;-78
2024/02/21 05:05:02;;;;;;;19.77;7.40;;;9.40;99.90;;;;;;771385;184;26496;-79
2024/02/21 05:07:29;;;;;;;13.83;6.50;;;9.50;99.90;;;;;;770207;184;26495;-79
2024/02/21 05:09:55;;;;;;;12.97;5.60;;;9.50;99.90;;;;;;768283;184;26498;-78
2024/02/21 05:12:22;;;;;;;16.10;6.50;;;9.50;99.90;;;;;;772260;183;26504;-78
2024/02/21 05:14:48;;;;;;;14.30;5.97;;;9.50;99.90;;;;;;770491;184;26601;-78
2024/02/21 05:17:15;;;;;;;11.93;6.03;;;9.50;99.90;;;;;;770679;184;26520;-79
2024/02/21 05:19:42;;;;;;;13.33;5.83;;;9.50;99.90;;;;;;769741;184;26488;-79
2024/02/21 05:22:08;;;;;;;13.50;6.20;;;9.50;99.90;;;;;;781241;181;26544;-79
2024/02/21 05:24:36;;;;;;;17.30;6.40;;;9.50;99.90;;;;;;782065;182;26560;-77
2024/02/21 05:27:01;;;;;;;14.17;6.70;;;9.50;99.90;;;;;;781324;182;26504;-78
2024/02/21 05:29:28;;;;;;;14.60;6.97;;;9.50;99.90;;;;;;780612;182;26472;-79
2024/02/21 05:31:55;;;;;;;14.30;6.53;;;9.50;99.90;;;;;;776405;182;27022;-79
2024/02/21 05:34:21;;;;;;;13.53;6.27;;;9.50;99.90;;;;;;785830;182;26461;-80
2024/02/21 05:36:49;;;;;;;16.63;6.67;;;9.50;99.90;;;;;;765065;185;26478;-79
2024/02/21 05:39:14;;;;;;;12.30;6.10;;;9.50;99.90;;;;;;771769;182;26514;-80
2024/02/21 05:41:41;;;;;;;12.37;5.80;;;9.60;99.90;;;;;;769725;183;26515;-79
2024/02/21 05:44:08;;;;;;;11.93;6.13;;;9.60;99.90;;;;;;768945;181;26489;-79
2024/02/21 05:46:35;;;;;;;9.90;5.80;;;9.60;99.90;;;;;;762855;184;27045;-79
2024/02/21 05:49:01;;;;;;;13.00;6.10;;;9.60;99.90;;;;;;771459;184;26487;-77
2024/02/21 05:51:27;;;;;;;13.63;6.30;;;9.70;99.90;;;;;;767793;185;26486;-79
2024/02/21 05:53:54;;;;;;;19.03;7.77;;;9.60;99.90;;;;;;769892;185;26466;-80
2024/02/21 05:56:21;;;;;;;19.20;7.67;;;9.70;99.90;;;;;;769399;183;26509;-81
2024/02/21 05:58:48;;;;;;;13.10;6.87;;;9.60;99.90;;;;;;770045;182;26476;-80
2024/02/21 06:01:14;;;;;;;16.37;6.70;;;9.60;99.90;;;;;;773330;183;26501;-77
2024/02/21 06:03:40;;;;;;;12.53;6.00;;;9.60;99.90;;;;;;767910;184;26502;-77
2024/02/21 06:06:07;;;;;;;15.87;6.67;;;9.60;99.90;;;;;;770652;185;26494;-75
2024/02/21 06:08:33;;;;;;;18.80;7.70;;;9.50;99.90;;;;;;768782;184;26483;-76
2024/02/21 06:11:00;;;;;;;12.13;5.97;;;9.60;99.90;;;;;;772067;182;26478;-78
2024/02/21 06:13:27;;;;;;;20.93;6.80;;;9.50;99.90;;;;;;783882;181;26461;-78
2024/02/21 06:15:53;;;;;;;14.10;6.77;;;9.50;99.90;;;;;;767231;184;26505;-78
2024/02/21 06:18:20;;;;;;;12.93;5.83;;;9.50;99.90;;;;;;771354;184;27064;-79
2024/02/21 06:20:46;;;;;;;14.87;6.93;;;9.50;99.90;;;;;;777051;182;26523;-78
2024/02/21 06:23:13;;;;;;;15.00;7.07;;;9.50;99.90;;;;;;772313;184;27141;-79
2024/02/21 06:25:40;;;;;;;14.60;7.43;;;9.50;99.90;;;;;;769803;182;27136;-78
2024/02/21 06:28:06;;;;;;;15.57;7.00;;;9.50;99.90;;;;;;772607;184;26514;-75
2024/02/21 06:30:33;;;;;;;17.17;6.87;;;9.50;99.90;;;;;;765104;184;27089;-79
2024/02/21 06:32:59;;;;;;;15.07;6.67;;;9.50;99.90;;;;;;772501;184;26477;-79
2024/02/21 06:35:26;;;;;;;13.47;6.50;;;9.50;99.90;;;;;;769644;184;27037;-79
2024/02/21 06:37:53;;;;;;;17.17;7.10;;;9.50;99.90;;;;;;765465;184;26474;-80
2024/02/21 06:40:21;;;;;;;14.83;6.70;;;9.50;99.90;;;;;;771268;184;26491;-79
2024/02/21 06:42:48;;;;;;;13.90;6.90;;;9.50;99.90;;;;;;774143;183;26518;-78
2024/02/21 06:45:14;;;;;;;18.93;6.80;;;9.50;99.90;;;;;;771681;185;27013;-79
2024/02/21 06:47:41;;;;;;;15.03;6.23;;;9.50;99.90;;;;;;767773;185;26498;-80
2024/02/21 06:50:08;;;;;;;18.83;7.47;;;9.60;99.90;;;;;;771269;184;26506;-80
2024/02/21 06:52:35;;;;;;;13.87;6.30;;;9.60;99.90;;;;;;764686;183;26621;-78
2024/02/21 06:55:01;;;;;;;14.40;6.80;;;9.60;99.90;;;;;;767162;185;27013;-79
2024/02/21 06:57:28;;;;;;;14.57;6.77;;;9.50;99.90;;;;;;769294;185;26502;-79
2024/02/21 06:59:54;;;;;;;12.17;5.93;;;9.50;99.90;;;;;;768623;182;26531;-79
2024/02/21 07:02:21;;;;;;;16.53;6.33;;;9.60;99.90;;;;;;767453;184;26487;-77
2024/02/21 07:04:48;;;;;;;14.77;6.73;;;9.60;99.90;;;;;;771117;183;26476;-79
2024/02/21 07:07:14;;;;;;;11.83;5.70;;;9.60;99.90;;;;;;775156;183;26494;-79
2024/02/21 07:09:41;;;;;;;13.27;5.87;;;9.60;99.90;;;;;;767927;184;26530;-77
2024/02/21 07:12:07;;;;;;;12.33;6.53;;;9.60;99.90;;;;;;764645;187;26530;-78
2024/02/21 07:14:34;;;;;;;14.57;5.43;;;9.50;99.90;;;;;;767895;184;26482;-75
2024/02/21 07:17:01;;;;;;;14.60;6.33;;;9.50;99.90;;;;;;771959;185;26509;-79
2024/02/21 07:19:27;;;;;;;11.93;6.03;;;9.50;99.90;;;;;;768795;182;26528;-78
2024/02/21 07:21:54;;;;;;;13.13;5.70;;;9.50;99.90;;;;;;772213;184;26505;-79
2024/02/21 07:24:20;;;;;;;14.80;5.77;;;9.50;99.90;;;;;;774679;183;26508;-79
2024/02/21 07:26:47;;;;;;;12.60;6.17;;;9.50;99.90;;;;;;766088;182;26633;-77
2024/02/21 07:29:13;;;;;;;10.87;4.70;;;9.50;99.90;;;;;;772128;182;26503;-78
2024/02/21 07:31:41;;;;;;;12.90;5.73;;;9.50;99.90;;;;;;768661;185;26525;-79
2024/02/21 07:34:07;;;;;;;12.90;5.77;;;9.60;99.90;;;;;;768862;185;26517;-79
2024/02/21 07:36:34;;;;;;;14.97;5.83;;;9.50;99.90;;;;;;775783;184;26502;-79
2024/02/21 07:39:00;;;;;;;15.80;6.17;;;9.50;99.90;;;;;;768886;185;26587;-76
2024/02/21 07:41:30;;;;;;;8.90;5.13;;;9.50;99.90;;;;;;770974;184;26528;-81
2024/02/21 07:43:54;;;;;;;17.03;5.80;;;9.50;99.90;;;;;;767016;184;26474;-79
2024/02/21 07:46:20;;;;;;;11.50;6.67;;;9.50;99.90;;;;;;775238;182;26497;-79
2024/02/21 07:48:47;;;;;;;12.43;5.37;;;9.50;99.90;;;;;;775238;183;26512;-78
2024/02/21 07:51:13;;;;;;;13.67;6.00;;;9.50;99.90;;;;;;777725;183;26488;-79
2024/02/21 07:53:44;;;;;;;12.67;6.10;;;9.50;99.90;;;;;;764581;184;26474;-78
2024/02/21 07:56:09;;;;;;;15.87;5.73;;;9.50;99.90;;;;;;764626;185;26516;-79
2024/02/21 07:58:35;;;;;;;12.67;5.37;;;9.50;99.90;;;;;;765313;183;26493;-78
2024/02/21 08:01:01;;;;;;;17.70;6.37;;;9.50;99.90;;;;;;768702;184;26498;-79
2024/02/21 08:03:28;;;;;;;10.67;5.80;;;9.50;99.90;;;;;;766468;184;26503;-79
2024/02/21 08:05:55;;;;;;;18.57;6.10;;;9.50;99.90;;;;;;765191;185;27066;-79
2024/02/21 08:08:21;;;;;;;14.83;6.77;;;9.50;99.90;;;;;;775582;184;26464;-77
2024/02/21 08:10:49;;;;;;;15.40;6.00;;;9.50;99.90;;;;;;772167;183;26519;-78
2024/02/21 08:13:16;;;;;;;12.90;6.00;;;9.50;99.90;;;;;;772675;182;26520;-78
2024/02/21 08:15:42;;;;;;;18.20;6.03;;;9.50;99.90;;;;;;773588;185;27072;-77
2024/02/21 08:18:09;;;;;;;15.03;5.57;;;9.50;99.90;;;;;;778440;183;26520;-77
2024/02/21 08:20:36;;;;;;;17.87;6.30;;;9.50;99.90;;;;;;776463;178;26490;-80
2024/02/21 08:23:03;;;;;;;18.07;7.17;;;9.50;99.90;;;;;;772877;178;26509;-80
2024/02/21 08:25:29;;;;;;;18.27;6.90;;;9.50;99.90;;;;;;768964;180;26873;-79
2024/02/21 08:27:55;;;;;;;12.13;5.80;;;9.50;99.90;;;;;;766995;178;26487;-80
2024/02/21 08:30:22;;;;;;;16.33;6.07;;;9.50;99.90;;;;;;765864;183;26486;-78
2024/02/21 08:32:49;;;;;;;16.37;6.00;;;9.50;99.90;;;;;;771411;183;26488;-78
2024/02/21 08:35:18;;;;;;;15.10;5.93;;;9.60;99.90;;;;;;771893;183;26510;-78
2024/02/21 08:37:43;;;;;;;13.43;5.60;;;9.60;99.90;;;;;;773807;183;26544;-78
2024/02/21 08:40:09;;;;;;;17.30;6.93;;;9.60;99.90;;;;;;776063;183;26514;-79
2024/02/21 08:42:36;;;;;;;20.97;6.80;;;9.70;99.90;;;;;;774734;184;26489;-78
2024/02/21 08:45:02;;;;;;;15.53;7.27;;;9.70;99.90;;;;;;778156;183;26483;-78
2024/02/21 08:47:29;;;;;;;17.30;5.30;;;9.80;99.90;;;;;;775125;184;26472;-79
2024/02/21 08:49:55;;;;;;;20.33;6.93;;;9.90;99.90;;;;;;774225;183;26529;-79
2024/02/21 08:52:22;;;;;;;16.43;6.50;;;9.90;99.90;;;;;;777606;181;26563;-76
2024/02/21 08:54:49;;;;;;;17.70;7.93;;;9.90;99.90;;;;;;777639;183;26500;-79
2024/02/21 08:57:15;;;;;;;19.97;6.87;;;9.90;99.90;;;;;;773758;184;26507;-79
2024/02/21 08:59:42;;;;;;;16.53;7.50;;;9.90;99.90;;;;;;775922;184;26488;-79
2024/02/21 09:02:08;;;;;;;12.77;5.60;;;10.00;99.30;;;;;;771115;183;26508;-78
2024/02/21 09:04:35;;;;;;;21.87;6.77;;;10.00;99.00;;;;;;779207;183;26533;-77
2024/02/21 09:07:01;;;;;;;23.60;11.40;;;10.10;98.60;;;;;;775400;183;26504;-79
2024/02/21 09:09:28;;;;;;;16.50;5.87;;;10.20;97.90;;;;;;777218;184;26663;-79
2024/02/21 09:11:55;;;;;;;17.77;6.23;;;10.40;97.30;;;;;;778281;182;26488;-79
2024/02/21 09:14:22;;;;;;;16.20;7.03;;;10.50;96.40;;;;;;777109;184;26472;-79
2024/02/21 09:16:48;;;;;;;16.20;5.93;;;10.50;96.70;;;;;;764161;184;26486;-78
2024/02/21 09:19:14;;;;;;;19.30;6.87;;;10.70;96.00;;;;;;774770;183;26490;-79
2024/02/21 09:21:41;;;;;;;14.03;6.03;;;10.70;96.10;;;;;;769371;184;26500;-79
2024/02/21 09:24:08;;;;;;;13.27;5.30;;;10.50;95.20;;;;;;770930;183;26496;-78
2024/02/21 09:26:34;;;;;;;13.23;4.63;;;10.50;95.90;;;;;;782350;182;26610;-80
2024/02/21 09:29:01;;;;;;;14.10;5.80;;;10.50;95.30;;;;;;771686;183;26560;-77
2024/02/21 09:31:27;;;;;;;13.77;5.20;;;10.60;96.00;;;;;;775453;183;26487;-79
2024/02/21 09:33:54;;;;;;;16.00;5.43;;;10.90;94.90;;;;;;774999;183;26483;-80
2024/02/21 09:36:21;;;;;;;8.93;5.57;;;10.80;94.20;;;;;;774649;184;26477;-79
2024/02/21 09:38:47;;;;;;;14.37;4.80;;;10.70;94.20;;;;;;774206;183;26499;-78
2024/02/21 09:41:17;;;;;;;18.83;5.50;;;10.60;94.00;;;;;;778279;181;26512;-77
2024/02/21 09:43:47;;;;;;;13.50;5.60;;;10.60;93.90;;;;;;783999;179;26459;-80
2024/02/21 09:46:14;;;;;;;12.20;5.83;;;10.60;94.10;;;;;;773754;184;26452;-81
2024/02/21 09:48:42;;;;;;;19.40;5.63;;;10.80;94.30;;;;;;769015;183;26476;-81
2024/02/21 09:51:08;;;;;;;15.23;5.40;;;10.70;93.50;;;;;;772632;184;26529;-79
2024/02/21 09:53:35;;;;;;;15.03;5.23;;;10.80;93.80;;;;;;768026;184;28106;-79
2024/02/21 09:56:02;;;;;;;13.63;5.57;;;11.00;93.20;;;;;;765210;184;26525;-79
2024/02/21 09:58:29;;;;;;;12.57;5.03;;;10.90;92.30;;;;;;772537;184;26511;-78
2024/02/21 10:00:57;;;;;;;14.10;5.20;;;10.90;92.50;;;;;;771995;184;26483;-78
2024/02/21 10:03:22;;;;;;;14.23;5.07;;;10.70;92.70;;;;;;766824;182;26567;-79
2024/02/21 10:05:49;;;;;;;10.63;5.83;;;10.80;93.00;;;;;;769142;185;27098;-79
2024/02/21 10:08:15;;;;;;;14.90;7.13;;;11.00;92.70;;;;;;769343;184;26474;-79
2024/02/21 10:10:44;;;;;;;18.10;6.57;;;11.20;92.70;;;;;;764857;184;27056;-79
2024/02/21 10:13:11;;;;;;;15.00;6.40;;;11.30;91.70;;;;;;766682;185;27056;-78
2024/02/21 10:15:38;;;;;;;16.43;6.73;;;11.30;91.90;;;;;;768857;184;26479;-79
2024/02/21 10:18:06;;;;;;;12.77;5.77;;;11.30;91.70;;;;;;770212;184;27018;-78
2024/02/21 10:20:31;;;;;;;10.60;4.67;;;11.30;91.20;;;;;;768052;184;26489;-79
2024/02/21 10:23:07;;;;;;;12.20;6.10;;;11.20;91.60;;;;;;766082;184;27033;-78
2024/02/21 10:25:30;;;;;;;11.80;5.17;;;11.20;91.90;;;;;;768743;185;27043;-76
2024/02/21 10:27:56;;;;;;;14.57;4.83;;;11.10;91.70;;;;;;771543;184;26506;-77
2024/02/21 10:30:23;;;;;;;14.97;5.50;;;11.00;91.80;;;;;;769334;184;27077;-79
2024/02/21 10:32:52;;;;;;;10.93;4.67;;;11.10;92.00;;;;;;763798;184;26504;-76
2024/02/21 10:35:26;;;;;;;10.77;5.63;;;11.50;91.50;;;;;;770097;183;26490;-79
2024/02/21 10:37:55;;;;;;;16.63;6.00;;;11.20;90.90;;;;;;769535;183;26497;-79
2024/02/21 10:40:19;;;;;;;11.30;4.83;;;11.20;91.30;;;;;;770077;183;27083;-79
2024/02/21 10:42:46;;;;;;;10.87;5.20;;;11.40;92.30;;;;;;770188;184;26514;-80
2024/02/21 10:45:12;;;;;;;13.70;5.73;;;11.70;90.80;;;;;;767041;184;27044;-79
2024/02/21 10:47:41;;;;;;;9.70;4.43;;;11.70;90.20;;;;;;770428;183;26511;-76
2024/02/21 10:50:08;;;;;;;13.03;4.63;;;11.60;89.80;;;;;;767658;185;26494;-78
2024/02/21 10:52:35;;;;;;;14.33;5.30;;;11.30;90.40;;;;;;765893;184;26498;-78
2024/02/21 10:55:04;;;;;;;14.57;4.97;;;11.30;90.40;;;;;;766422;184;26525;-79
2024/02/21 10:57:31;;;;;;;15.70;5.23;;;11.60;90.70;;;;;;766243;184;26491;-79
2024/02/21 10:59:58;;;;;;;13.83;4.97;;;11.80;89.70;;;;;;781235;176;26509;-78
2024/02/21 11:02:25;;;;;;;12.90;4.90;;;11.70;90.30;;;;;;796733;180;27041;-80
2024/02/21 11:04:55;;;;;;;12.90;4.97;;;11.80;88.80;;;;;;788006;180;26467;-79
2024/02/21 11:07:22;;;;;;;12.10;4.60;;;11.90;88.60;;;;;;793739;180;26444;-77
2024/02/21 11:09:52;;;;;;;16.93;5.63;;;12.40;88.40;;;;;;788432;179;26845;-80
2024/02/21 11:12:20;;;;;;;12.43;4.60;;;12.80;86.20;;;;;;811774;176;26463;-79
2024/02/21 11:14:53;;;;;;;13.00;4.90;;;12.60;84.50;;;;;;803108;178;26428;-80
2024/02/21 11:17:21;;;;;;;11.03;4.40;;;12.30;85.40;;;;;;794623;180;26472;-79
2024/02/21 11:19:49;;;;;;;12.70;4.90;;;12.60;84.50;;;;;;793378;179;26438;-76
2024/02/21 11:22:24;;;;;;;9.13;4.53;;;12.80;83.80;;;;;;792985;179;26458;-79
2024/02/21 11:24:55;;;;;;;8.93;4.27;;;12.90;84.60;;;;;;792552;180;26475;-78
2024/02/21 11:27:24;;;;;;;10.40;4.50;;;13.00;83.50;;;;;;791272;180;27040;-78
2024/02/21 11:30:06;;;;;;;12.13;5.03;;;12.50;83.90;;;;;;797081;178;26536;-77
2024/02/21 11:35:26;;;;;;;10.27;4.27;;;12.90;83.20;;;;;;802642;177;26403;-80
2024/02/21 11:37:55;;;;;;;8.53;4.20;;;12.60;85.00;;;;;;825364;174;26405;-77
2024/02/21 11:40:31;;;;;;;13.00;5.00;;;12.50;85.50;;;;;;817227;174;26491;-79
2024/02/21 11:42:59;;;;;;;10.10;4.10;;;12.60;86.60;;;;;;815019;174;26461;-79
2024/02/21 11:45:27;;;;;;;11.37;4.37;;;12.60;87.10;;;;;;799891;178;26429;-80
2024/02/21 11:48:03;;;;;;;9.97;4.43;;;12.70;84.60;;;;;;816946;174;26407;-79
2024/02/21 11:50:31;;;;;;;14.97;4.90;;;12.70;84.90;;;;;;797874;178;27042;-79
2024/02/21 11:53:01;;;;;;;12.30;4.07;;;12.80;84.30;;;;;;808908;174;26456;-79
2024/02/21 11:55:28;;;;;;;9.37;4.30;;;12.60;83.80;;;;;;804749;177;26733;-80
2024/02/21 11:57:58;;;;;;;10.87;3.90;;;12.70;83.20;;;;;;811799;173;26489;-78
2024/02/21 12:00:26;;;;;;;10.50;4.57;;;12.60;84.00;;;;;;813671;173;26471;-77
2024/02/21 12:02:56;;;;;;;13.97;4.67;;;12.70;83.70;;;;;;812316;173;26911;-78
2024/02/21 12:05:28;;;;;;;9.67;3.83;;;12.40;85.30;;;;;;813033;173;26430;-78
2024/02/21 12:07:58;;;;;;;14.77;5.13;;;12.60;84.50;;;;;;817287;172;26456;-78
2024/02/21 12:10:29;;;;;;;12.53;4.60;;;12.50;85.00;;;;;;797286;177;26448;-79
2024/02/21 12:13:03;;;;;;;13.53;4.80;;;12.60;87.80;;;;;;815566;174;26419;-80
2024/02/21 12:15:35;;;;;;;11.83;5.43;;;12.60;85.40;;;;;;818753;171;26403;-79
2024/02/21 12:18:04;;;;;;;12.10;4.80;;;12.60;84.70;;;;;;817151;175;26411;-79
2024/02/21 12:20:32;;;;;;;10.30;4.23;;;12.30;85.20;;;;;;804344;176;26441;-77
2024/02/21 12:23:00;;;;;;;9.93;4.23;;;12.30;85.70;;;;;;825702;173;26426;-79
2024/02/21 12:25:29;;;;;;;9.27;4.60;;;12.40;88.40;;;;;;812151;176;26389;-80
2024/02/21 12:27:58;;;;;;;13.50;4.37;;;12.40;86.40;;;;;;802660;176;26415;-79
2024/02/21 12:30:24;;;;;;;9.80;4.27;;;12.30;86.40;;;;;;811692;176;26611;-79
2024/02/21 12:32:58;;;;;;;11.83;4.07;;;12.70;86.70;;;;;;797352;177;26628;-80
2024/02/21 12:35:22;;;;;;;13.73;3.90;;;12.80;85.80;;;;;;819415;174;26412;-80
2024/02/21 12:37:51;;;;;;;10.70;3.90;;;13.00;85.20;;;;;;817426;170;26400;-80
2024/02/21 12:40:19;;;;;;;14.67;4.53;;;13.10;83.90;;;;;;819485;173;26407;-79
2024/02/21 12:42:45;;;;;;;10.67;4.57;;;12.80;84.00;;;;;;800662;176;26438;-79